LBSF/SOF METAR and TAF weather

Enter ICAO airport designator
Station Type Date Time Source
LBSF METAR 2021/08/05 04:30 UTC NOAA

LBSF 050430Z 31004KT CAVOK 18/13 Q1015 NOSIG


Station Type Date Time Source
LBSF Decoded METAR 2021/08/05 04:30 UTC NOAA

Sofia Observ. , Bulgaria (LBSF) 42-39N 023-23E 595M
Aug 05, 2021 - 12:30 AM EDT / 2021.08.05 0430 UTC
Wind: from the NW (310 degrees) at 5 MPH (4 KT):0
Visibility: greater than 7 mile(s):0
Temperature: 64 F (18 C)
Dew Point: 55 F (13 C)
Relative Humidity: 72%
Pressure (altimeter): 29.97 in. Hg (1015 hPa)
ob: LBSF 050430Z 31004KT CAVOK 18/13 Q1015 NOSIG
cycle: 4

Station Type Date Time Source
LBSF TAF 2021/08/04 18:18 UTC NOAA

TAF LBSF 041700Z 0418/0518 02010KT CAVOK
BECMG 0419/0421 VRB04KT

Example: see airport list